Hornbrook, CA (96044)

9:44 PM PST on February 06, 2016 (GMT -0800)
Siskiyou County | | Change Station
CLOSE
Current Station
Airport
Location: Montague,
Elevation: 2648 ft
Nearby Weather Stations

Elev 2648 ft 41.78 °N, 122.47 °W | Updated 51 minutes ago

Overcast
Overcast
39 °F
Feels Like 35 °F
N
6
Wind Variable Wind from SE

Today
High -- | Low -- °F
--% Chance of Precip.
Yesterday
High -- | Low -- °F
Precip. -- in
Pressure 30.53 in
Visibility 10.0 miles
Clouds Clear
Windchill 35 °F
Dew Point 34 °F
Humidity 82%
Rainfall 0.00 in
Snow Depth Not available.
7:17 AM 5:31 PM
Waning Crescent, 3% visible
METAR KSIY 070453Z AUTO 14005KT 10SM CLR 04/01 A3046 RMK AO2 SLP336 T00390011 TSNO
Pressure 30.53 in
Visibility 10.0 miles
Clouds Clear
Windchill 35 °F
Dew Point 34 °F
Humidity 82%
Rainfall 0.00 in
Snow Depth Not available.
7:17 AM 5:31 PM
Waning Crescent, 3% visible
METAR KSIY 070453Z AUTO 14005KT 10SM CLR 04/01 A3046 RMK AO2 SLP336 T00390011 TSNO

10-Day Weather Forecast

Almanac

Astronomy

Feb. 06, 2016 Rise Set
Actual Time
Civil Twilight
Nautical Twilight
Astronomical Twilight
Moon
Length of Visible Light
Length of Day
Tomorrow will be .
, % of the Moon is Illuminated

Today's Extremes

State Highs State Lows

Community

WunderPhotos

Upload Photos

1,891,167 photos uploaded!

WunderBlog® & News

Nearby

Air Quality

  Air Quality AQ Index Pollutant
Not available.

Snow Depth

Station Depth Elevation

Earthquake Activity

City Distance Mag. Time & Date
Minimum magnitude displayed is 2.5.

Coastal Water Temperatures

Place Temperature

Stations

Nearby Weather Stations

Station Location Temp. Windchill Dew Point Humidity Wind Precip. Elev Updated Type
                   

Watches & Warnings

There are currently no watches in effect.